Aérodrome :
LOGIN :

S'inscrire | Disclaimer

   EN    FR    IT 

 










Légende :    VFR   VFR Marginal   IFR   IFR Intensif   IFR Très Intensif
Visi : 
Plafond : 
>= 8 km
>= 3000ft
5 à 8 km
1000 à 3000 ft
1500m à 5 km
500 à 1000 ft
800 à 1500m
200 à 500 ft
< 800m
< 200 ft
Symboles :   Orages  Brouillard  Fortes neiges  Fortes précipitations  Vent > 20 kt
SIGMETs :   Divers  Orages  Givrage  Turbulence  Onde Orograph.  Cendres Volcan.







- Altitude de l'aérodrome : 75 ft
- Code IATA : MRH


EGYM - RAF Marham

DERNIER METAR :
  • 261650Z 36012KT 9999 FEW010 SCT020 08/03 Q1018 WHT TEMPO 7000 -SHRA WHT

METARs EXPIRÉS :
  • 261550Z 01017G27KT 8000 SHGS FEW010 FEW020CB BKN024 05/02 Q1018 WHT TEMPO 4000 SHGS SCT010 GRN
  • 261450Z 01015KT 9999 VCSH FEW010 FEW020CB SCT024 08/03 Q1018 WHT TEMPO 4000 SHGS SCT010 GRN

TAF TAF EGYM
Valide du 26 à 18h jusqu'au 27 à 03h UTC


261633Z 2618/2703 36012KT 9999 SCT025
TEMPO 2618/2621 7000 -SHRA SCT020TCU
Pas de NOTAMs connus pour ce terrain.



MET'MAP, la Météo Aéronautique d'un coup d'oeil ! - Copyright ORBIFLY Décembre 2007 - Disclaimer

ORBIFLY MET'MAP TEAM :

Programmation & Développement : Alexandra Zaïnal
Conception & Développement : Baudouin d'Aumeries
Co-Programmation & Développement : Marc-Olivier Méhu
Soutien technique & logistique : Manuel Goepfert

Contact : metmap@orbifly.com




SOURCES & CREDITS :

   NOAA